sensor_id;sensor_type;location;lat;lon;timestamp;P1;durP1;ratioP1;P2;durP2;ratioP2
4468;SDS011;2247;42.666;23.292;2024-02-23T00:02:14;19.57;;;9.60;;
4468;SDS011;2247;42.666;23.292;2024-02-23T00:04:41;16.97;;;10.37;;
4468;SDS011;2247;42.666;23.292;2024-02-23T00:07:08;16.97;;;10.03;;
4468;SDS011;2247;42.666;23.292;2024-02-23T00:09:35;19.13;;;10.80;;
4468;SDS011;2247;42.666;23.292;2024-02-23T00:12:02;16.90;;;10.50;;
4468;SDS011;2247;42.666;23.292;2024-02-23T00:14:31;19.00;;;10.53;;
4468;SDS011;2247;42.666;23.292;2024-02-23T00:17:01;17.50;;;10.43;;
4468;SDS011;2247;42.666;23.292;2024-02-23T00:19:29;15.93;;;11.03;;
4468;SDS011;2247;42.666;23.292;2024-02-23T00:21:57;15.20;;;9.97;;
4468;SDS011;2247;42.666;23.292;2024-02-23T00:24:24;13.70;;;9.33;;
4468;SDS011;2247;42.666;23.292;2024-02-23T00:26:51;14.83;;;10.17;;
4468;SDS011;2247;42.666;23.292;2024-02-23T00:29:18;13.13;;;9.20;;
4468;SDS011;2247;42.666;23.292;2024-02-23T00:31:48;14.63;;;8.17;;
4468;SDS011;2247;42.666;23.292;2024-02-23T00:34:15;12.93;;;8.00;;
4468;SDS011;2247;42.666;23.292;2024-02-23T00:36:42;9.50;;;6.93;;
4468;SDS011;2247;42.666;23.292;2024-02-23T00:39:10;16.73;;;9.50;;
4468;SDS011;2247;42.666;23.292;2024-02-23T00:41:37;13.63;;;8.40;;
4468;SDS011;2247;42.666;23.292;2024-02-23T00:44:04;13.70;;;8.70;;
4468;SDS011;2247;42.666;23.292;2024-02-23T00:46:31;11.17;;;8.00;;
4468;SDS011;2247;42.666;23.292;2024-02-23T00:49:01;12.03;;;8.13;;
4468;SDS011;2247;42.666;23.292;2024-02-23T00:51:28;16.77;;;9.83;;
4468;SDS011;2247;42.666;23.292;2024-02-23T00:53:55;13.10;;;7.87;;
4468;SDS011;2247;42.666;23.292;2024-02-23T00:56:22;9.43;;;6.83;;
4468;SDS011;2247;42.666;23.292;2024-02-23T00:58:50;11.50;;;8.00;;
4468;SDS011;2247;42.666;23.292;2024-02-23T01:01:17;10.30;;;7.70;;
4468;SDS011;2247;42.666;23.292;2024-02-23T01:03:44;13.10;;;8.30;;
4468;SDS011;2247;42.666;23.292;2024-02-23T01:06:13;12.13;;;8.00;;
4468;SDS011;2247;42.666;23.292;2024-02-23T01:08:40;11.50;;;8.33;;
4468;SDS011;2247;42.666;23.292;2024-02-23T01:11:07;12.40;;;8.07;;
4468;SDS011;2247;42.666;23.292;2024-02-23T01:13:34;12.30;;;7.97;;
4468;SDS011;2247;42.666;23.292;2024-02-23T01:16:01;14.73;;;8.77;;
4468;SDS011;2247;42.666;23.292;2024-02-23T01:18:29;13.00;;;8.70;;
4468;SDS011;2247;42.666;23.292;2024-02-23T01:20:56;12.10;;;7.73;;
4468;SDS011;2247;42.666;23.292;2024-02-23T01:23:24;11.33;;;7.73;;
4468;SDS011;2247;42.666;23.292;2024-02-23T01:25:52;11.77;;;7.10;;
4468;SDS011;2247;42.666;23.292;2024-02-23T01:28:19;11.03;;;7.97;;
4468;SDS011;2247;42.666;23.292;2024-02-23T01:30:46;12.60;;;7.40;;
4468;SDS011;2247;42.666;23.292;2024-02-23T01:33:13;10.60;;;7.17;;
4468;SDS011;2247;42.666;23.292;2024-02-23T01:35:40;12.10;;;8.07;;
4468;SDS011;2247;42.666;23.292;2024-02-23T01:38:07;11.83;;;7.90;;
4468;SDS011;2247;42.666;23.292;2024-02-23T01:40:35;10.57;;;7.17;;
4468;SDS011;2247;42.666;23.292;2024-02-23T01:43:02;9.80;;;6.90;;
4468;SDS011;2247;42.666;23.292;2024-02-23T01:45:29;9.87;;;6.93;;
4468;SDS011;2247;42.666;23.292;2024-02-23T01:47:57;10.70;;;7.43;;
4468;SDS011;2247;42.666;23.292;2024-02-23T01:50:24;10.30;;;7.50;;
4468;SDS011;2247;42.666;23.292;2024-02-23T01:52:52;12.07;;;7.50;;
4468;SDS011;2247;42.666;23.292;2024-02-23T01:55:19;11.60;;;7.40;;
4468;SDS011;2247;42.666;23.292;2024-02-23T01:57:48;12.90;;;7.90;;
4468;SDS011;2247;42.666;23.292;2024-02-23T02:00:16;15.00;;;8.20;;
4468;SDS011;2247;42.666;23.292;2024-02-23T02:02:45;11.80;;;7.73;;
4468;SDS011;2247;42.666;23.292;2024-02-23T02:05:14;12.90;;;7.57;;
4468;SDS011;2247;42.666;23.292;2024-02-23T02:07:41;11.20;;;7.70;;
4468;SDS011;2247;42.666;23.292;2024-02-23T02:10:09;11.57;;;7.80;;
4468;SDS011;2247;42.666;23.292;2024-02-23T02:12:36;18.77;;;6.70;;
4468;SDS011;2247;42.666;23.292;2024-02-23T02:15:05;11.20;;;6.90;;
4468;SDS011;2247;42.666;23.292;2024-02-23T02:17:33;10.10;;;7.30;;
4468;SDS011;2247;42.666;23.292;2024-02-23T02:20:01;9.57;;;6.83;;
4468;SDS011;2247;42.666;23.292;2024-02-23T02:22:31;10.63;;;7.10;;
4468;SDS011;2247;42.666;23.292;2024-02-23T02:24:59;14.00;;;7.50;;
4468;SDS011;2247;42.666;23.292;2024-02-23T02:27:26;11.97;;;7.63;;
4468;SDS011;2247;42.666;23.292;2024-02-23T02:29:53;11.90;;;7.67;;
4468;SDS011;2247;42.666;23.292;2024-02-23T02:32:21;9.70;;;7.40;;
4468;SDS011;2247;42.666;23.292;2024-02-23T02:34:48;10.53;;;7.57;;
4468;SDS011;2247;42.666;23.292;2024-02-23T02:37:15;10.13;;;7.50;;
4468;SDS011;2247;42.666;23.292;2024-02-23T02:39:42;12.10;;;7.77;;
4468;SDS011;2247;42.666;23.292;2024-02-23T02:42:09;11.27;;;8.07;;
4468;SDS011;2247;42.666;23.292;2024-02-23T02:44:36;12.60;;;7.47;;
4468;SDS011;2247;42.666;23.292;2024-02-23T02:47:03;11.20;;;7.40;;
4468;SDS011;2247;42.666;23.292;2024-02-23T02:49:31;12.73;;;7.60;;
4468;SDS011;2247;42.666;23.292;2024-02-23T02:51:58;9.17;;;7.07;;
4468;SDS011;2247;42.666;23.292;2024-02-23T02:54:26;11.97;;;6.70;;
4468;SDS011;2247;42.666;23.292;2024-02-23T02:56:52;9.63;;;7.03;;
4468;SDS011;2247;42.666;23.292;2024-02-23T02:59:20;10.27;;;7.53;;
4468;SDS011;2247;42.666;23.292;2024-02-23T03:01:47;11.23;;;7.77;;
4468;SDS011;2247;42.666;23.292;2024-02-23T03:04:14;12.17;;;8.30;;
4468;SDS011;2247;42.666;23.292;2024-02-23T03:06:42;12.20;;;7.53;;
4468;SDS011;2247;42.666;23.292;2024-02-23T03:09:09;11.47;;;7.00;;
4468;SDS011;2247;42.666;23.292;2024-02-23T03:11:36;12.53;;;8.43;;
4468;SDS011;2247;42.666;23.292;2024-02-23T03:14:03;11.83;;;8.00;;
4468;SDS011;2247;42.666;23.292;2024-02-23T03:16:30;11.53;;;7.50;;
4468;SDS011;2247;42.666;23.292;2024-02-23T03:18:56;16.20;;;8.00;;
4468;SDS011;2247;42.666;23.292;2024-02-23T03:21:23;14.00;;;8.53;;
4468;SDS011;2247;42.666;23.292;2024-02-23T03:23:51;14.03;;;8.20;;
4468;SDS011;2247;42.666;23.292;2024-02-23T03:26:18;11.60;;;7.83;;
4468;SDS011;2247;42.666;23.292;2024-02-23T03:28:45;10.90;;;7.83;;
4468;SDS011;2247;42.666;23.292;2024-02-23T03:31:13;10.13;;;7.30;;
4468;SDS011;2247;42.666;23.292;2024-02-23T03:33:40;13.70;;;7.90;;
4468;SDS011;2247;42.666;23.292;2024-02-23T03:36:07;13.90;;;7.63;;
4468;SDS011;2247;42.666;23.292;2024-02-23T03:38:34;14.00;;;7.73;;
4468;SDS011;2247;42.666;23.292;2024-02-23T03:41:03;11.50;;;8.03;;
4468;SDS011;2247;42.666;23.292;2024-02-23T03:43:31;10.63;;;7.20;;
4468;SDS011;2247;42.666;23.292;2024-02-23T03:45:59;15.53;;;7.70;;
4468;SDS011;2247;42.666;23.292;2024-02-23T03:48:26;10.70;;;7.67;;
4468;SDS011;2247;42.666;23.292;2024-02-23T03:50:52;12.23;;;8.53;;
4468;SDS011;2247;42.666;23.292;2024-02-23T03:53:19;15.50;;;8.10;;
4468;SDS011;2247;42.666;23.292;2024-02-23T03:55:47;12.00;;;7.97;;
4468;SDS011;2247;42.666;23.292;2024-02-23T03:58:16;9.80;;;6.97;;
4468;SDS011;2247;42.666;23.292;2024-02-23T04:00:43;11.33;;;7.93;;
4468;SDS011;2247;42.666;23.292;2024-02-23T04:03:10;11.23;;;7.60;;
4468;SDS011;2247;42.666;23.292;2024-02-23T04:05:36;10.33;;;7.90;;
4468;SDS011;2247;42.666;23.292;2024-02-23T04:08:03;15.27;;;8.80;;
4468;SDS011;2247;42.666;23.292;2024-02-23T04:10:31;12.10;;;8.27;;
4468;SDS011;2247;42.666;23.292;2024-02-23T04:12:58;14.03;;;8.63;;
4468;SDS011;2247;42.666;23.292;2024-02-23T04:15:27;12.33;;;8.60;;
4468;SDS011;2247;42.666;23.292;2024-02-23T04:17:54;11.97;;;7.20;;
4468;SDS011;2247;42.666;23.292;2024-02-23T04:20:21;11.33;;;7.80;;
4468;SDS011;2247;42.666;23.292;2024-02-23T04:22:47;11.40;;;7.73;;
4468;SDS011;2247;42.666;23.292;2024-02-23T04:25:14;12.63;;;8.43;;
4468;SDS011;2247;42.666;23.292;2024-02-23T04:27:41;11.50;;;7.77;;
4468;SDS011;2247;42.666;23.292;2024-02-23T04:30:09;12.60;;;7.87;;
4468;SDS011;2247;42.666;23.292;2024-02-23T04:32:38;14.43;;;8.53;;
4468;SDS011;2247;42.666;23.292;2024-02-23T04:35:05;10.70;;;7.90;;
4468;SDS011;2247;42.666;23.292;2024-02-23T04:37:33;15.83;;;8.90;;
4468;SDS011;2247;42.666;23.292;2024-02-23T04:40:00;14.80;;;8.87;;
4468;SDS011;2247;42.666;23.292;2024-02-23T05:14:59;16.93;;;9.67;;
4468;SDS011;2247;42.666;23.292;2024-02-23T05:17:28;16.77;;;9.10;;
4468;SDS011;2247;42.666;23.292;2024-02-23T05:19:55;13.63;;;8.67;;
4468;SDS011;2247;42.666;23.292;2024-02-23T05:24:53;11.30;;;8.10;;
4468;SDS011;2247;42.666;23.292;2024-02-23T05:27:22;13.40;;;8.00;;
4468;SDS011;2247;42.666;23.292;2024-02-23T05:29:49;11.40;;;7.90;;
4468;SDS011;2247;42.666;23.292;2024-02-23T05:32:18;11.37;;;8.33;;
4468;SDS011;2247;42.666;23.292;2024-02-23T05:34:45;11.97;;;8.17;;
4468;SDS011;2247;42.666;23.292;2024-02-23T05:37:16;16.20;;;8.67;;
4468;SDS011;2247;42.666;23.292;2024-02-23T05:39:43;13.50;;;8.80;;
4468;SDS011;2247;42.666;23.292;2024-02-23T05:42:11;12.60;;;8.53;;
4468;SDS011;2247;42.666;23.292;2024-02-23T05:44:38;17.13;;;8.83;;
4468;SDS011;2247;42.666;23.292;2024-02-23T05:47:06;12.07;;;9.13;;
4468;SDS011;2247;42.666;23.292;2024-02-23T05:49:37;16.23;;;9.07;;
4468;SDS011;2247;42.666;23.292;2024-02-23T05:52:04;13.60;;;9.17;;
4468;SDS011;2247;42.666;23.292;2024-02-23T05:54:32;12.53;;;9.20;;
4468;SDS011;2247;42.666;23.292;2024-02-23T05:56:58;17.40;;;9.30;;
4468;SDS011;2247;42.666;23.292;2024-02-23T05:59:26;16.70;;;10.23;;
4468;SDS011;2247;42.666;23.292;2024-02-23T06:01:53;14.27;;;9.10;;
4468;SDS011;2247;42.666;23.292;2024-02-23T06:04:22;20.43;;;9.87;;
4468;SDS011;2247;42.666;23.292;2024-02-23T06:06:50;14.40;;;8.77;;
4468;SDS011;2247;42.666;23.292;2024-02-23T06:09:17;18.47;;;9.97;;
4468;SDS011;2247;42.666;23.292;2024-02-23T06:11:45;19.03;;;11.63;;
4468;SDS011;2247;42.666;23.292;2024-02-23T06:14:12;21.50;;;10.23;;
4468;SDS011;2247;42.666;23.292;2024-02-23T06:16:39;14.77;;;10.07;;
4468;SDS011;2247;42.666;23.292;2024-02-23T06:19:06;15.73;;;9.60;;
4468;SDS011;2247;42.666;23.292;2024-02-23T06:21:33;14.10;;;9.70;;
4468;SDS011;2247;42.666;23.292;2024-02-23T06:24:01;13.67;;;9.60;;
4468;SDS011;2247;42.666;23.292;2024-02-23T06:26:29;14.10;;;9.53;;
4468;SDS011;2247;42.666;23.292;2024-02-23T06:28:57;17.07;;;9.90;;
4468;SDS011;2247;42.666;23.292;2024-02-23T06:31:23;16.30;;;10.70;;
4468;SDS011;2247;42.666;23.292;2024-02-23T06:33:50;13.07;;;9.40;;
4468;SDS011;2247;42.666;23.292;2024-02-23T06:36:17;23.10;;;11.07;;
4468;SDS011;2247;42.666;23.292;2024-02-23T06:38:44;15.70;;;10.40;;
4468;SDS011;2247;42.666;23.292;2024-02-23T06:41:13;20.30;;;10.30;;
4468;SDS011;2247;42.666;23.292;2024-02-23T06:43:40;19.90;;;11.43;;
4468;SDS011;2247;42.666;23.292;2024-02-23T06:46:07;19.90;;;11.10;;
4468;SDS011;2247;42.666;23.292;2024-02-23T06:48:34;17.03;;;11.07;;
4468;SDS011;2247;42.666;23.292;2024-02-23T06:51:02;15.90;;;10.20;;
4468;SDS011;2247;42.666;23.292;2024-02-23T06:53:30;17.37;;;11.00;;
4468;SDS011;2247;42.666;23.292;2024-02-23T06:55:57;16.60;;;10.97;;
4468;SDS011;2247;42.666;23.292;2024-02-23T06:58:27;15.43;;;10.00;;
4468;SDS011;2247;42.666;23.292;2024-02-23T07:00:54;15.73;;;10.53;;
4468;SDS011;2247;42.666;23.292;2024-02-23T07:03:21;20.50;;;10.77;;
4468;SDS011;2247;42.666;23.292;2024-02-23T07:05:48;13.80;;;9.67;;
4468;SDS011;2247;42.666;23.292;2024-02-23T07:08:15;19.30;;;10.40;;
4468;SDS011;2247;42.666;23.292;2024-02-23T07:10:43;15.30;;;10.60;;
4468;SDS011;2247;42.666;23.292;2024-02-23T07:13:10;16.30;;;10.13;;
4468;SDS011;2247;42.666;23.292;2024-02-23T07:15:38;14.50;;;9.63;;
4468;SDS011;2247;42.666;23.292;2024-02-23T07:18:05;14.10;;;9.93;;
4468;SDS011;2247;42.666;23.292;2024-02-23T07:20:33;15.77;;;10.10;;
4468;SDS011;2247;42.666;23.292;2024-02-23T07:23:01;24.97;;;9.97;;
4468;SDS011;2247;42.666;23.292;2024-02-23T07:25:28;15.70;;;10.33;;
4468;SDS011;2247;42.666;23.292;2024-02-23T07:27:55;23.33;;;10.63;;
4468;SDS011;2247;42.666;23.292;2024-02-23T07:30:22;20.93;;;10.50;;
4468;SDS011;2247;42.666;23.292;2024-02-23T07:32:50;16.70;;;9.93;;
4468;SDS011;2247;42.666;23.292;2024-02-23T07:35:18;19.07;;;10.77;;
4468;SDS011;2247;42.666;23.292;2024-02-23T07:37:44;16.97;;;9.73;;
4468;SDS011;2247;42.666;23.292;2024-02-23T07:40:11;16.30;;;10.43;;
4468;SDS011;2247;42.666;23.292;2024-02-23T07:42:39;15.97;;;10.03;;
4468;SDS011;2247;42.666;23.292;2024-02-23T07:45:06;16.83;;;10.50;;
4468;SDS011;2247;42.666;23.292;2024-02-23T07:47:34;14.13;;;10.50;;
4468;SDS011;2247;42.666;23.292;2024-02-23T07:50:03;16.57;;;10.87;;
4468;SDS011;2247;42.666;23.292;2024-02-23T08:00:16;15.30;;;10.73;;
4468;SDS011;2247;42.666;23.292;2024-02-23T08:05:24;15.60;;;10.93;;
4468;SDS011;2247;42.666;23.292;2024-02-23T08:10:45;19.93;;;11.97;;
4468;SDS011;2247;42.666;23.292;2024-02-23T08:13:23;17.20;;;11.37;;
4468;SDS011;2247;42.666;23.292;2024-02-23T08:15:51;18.50;;;11.37;;
4468;SDS011;2247;42.666;23.292;2024-02-23T08:18:27;18.90;;;11.47;;
4468;SDS011;2247;42.666;23.292;2024-02-23T08:20:58;16.50;;;10.93;;
4468;SDS011;2247;42.666;23.292;2024-02-23T08:23:27;30.53;;;11.33;;
4468;SDS011;2247;42.666;23.292;2024-02-23T08:25:55;16.30;;;10.60;;
4468;SDS011;2247;42.666;23.292;2024-02-23T08:28:23;16.33;;;10.40;;
4468;SDS011;2247;42.666;23.292;2024-02-23T08:30:52;17.63;;;10.70;;
4468;SDS011;2247;42.666;23.292;2024-02-23T08:33:19;18.13;;;11.27;;
4468;SDS011;2247;42.666;23.292;2024-02-23T08:51:20;14.70;;;10.00;;
4468;SDS011;2247;42.666;23.292;2024-02-23T08:56:22;26.03;;;11.17;;
4468;SDS011;2247;42.666;23.292;2024-02-23T08:59:02;14.03;;;9.10;;
4468;SDS011;2247;42.666;23.292;2024-02-23T09:01:30;14.77;;;10.00;;
4468;SDS011;2247;42.666;23.292;2024-02-23T09:04:01;17.57;;;8.60;;
4468;SDS011;2247;42.666;23.292;2024-02-23T09:06:33;10.60;;;7.10;;
4468;SDS011;2247;42.666;23.292;2024-02-23T09:09:02;11.10;;;7.00;;
4468;SDS011;2247;42.666;23.292;2024-02-23T09:16:34;12.53;;;7.23;;
4468;SDS011;2247;42.666;23.292;2024-02-23T09:19:01;9.10;;;6.47;;
4468;SDS011;2247;42.666;23.292;2024-02-23T09:21:28;9.87;;;6.20;;
4468;SDS011;2247;42.666;23.292;2024-02-23T09:23:56;7.17;;;5.50;;
4468;SDS011;2247;42.666;23.292;2024-02-23T09:26:24;10.40;;;6.53;;
4468;SDS011;2247;42.666;23.292;2024-02-23T09:28:51;7.57;;;5.80;;
4468;SDS011;2247;42.666;23.292;2024-02-23T09:31:18;12.03;;;6.80;;
4468;SDS011;2247;42.666;23.292;2024-02-23T09:33:45;11.10;;;6.33;;
4468;SDS011;2247;42.666;23.292;2024-02-23T09:36:14;9.27;;;4.73;;
4468;SDS011;2247;42.666;23.292;2024-02-23T09:38:41;10.07;;;6.33;;
4468;SDS011;2247;42.666;23.292;2024-02-23T09:41:13;6.80;;;4.40;;
4468;SDS011;2247;42.666;23.292;2024-02-23T09:43:46;6.07;;;4.10;;
4468;SDS011;2247;42.666;23.292;2024-02-23T09:46:15;6.90;;;4.40;;
4468;SDS011;2247;42.666;23.292;2024-02-23T09:48:44;6.67;;;4.53;;
4468;SDS011;2247;42.666;23.292;2024-02-23T09:51:12;5.63;;;4.00;;
4468;SDS011;2247;42.666;23.292;2024-02-23T09:53:41;8.93;;;4.20;;
4468;SDS011;2247;42.666;23.292;2024-02-23T09:56:08;5.10;;;4.40;;
4468;SDS011;2247;42.666;23.292;2024-02-23T09:58:39;5.60;;;3.80;;
4468;SDS011;2247;42.666;23.292;2024-02-23T10:01:09;5.70;;;4.07;;
4468;SDS011;2247;42.666;23.292;2024-02-23T10:03:37;6.70;;;4.50;;
4468;SDS011;2247;42.666;23.292;2024-02-23T10:06:05;7.67;;;5.37;;
4468;SDS011;2247;42.666;23.292;2024-02-23T10:08:32;6.63;;;4.50;;
4468;SDS011;2247;42.666;23.292;2024-02-23T10:11:00;5.20;;;4.20;;
4468;SDS011;2247;42.666;23.292;2024-02-23T10:13:29;5.40;;;4.20;;
4468;SDS011;2247;42.666;23.292;2024-02-23T10:15:57;6.37;;;4.40;;
4468;SDS011;2247;42.666;23.292;2024-02-23T10:18:24;3.77;;;3.30;;
4468;SDS011;2247;42.666;23.292;2024-02-23T10:20:51;3.73;;;3.07;;
4468;SDS011;2247;42.666;23.292;2024-02-23T10:23:19;3.70;;;3.30;;
4468;SDS011;2247;42.666;23.292;2024-02-23T10:25:46;4.70;;;3.20;;
4468;SDS011;2247;42.666;23.292;2024-02-23T10:28:14;5.60;;;3.10;;
4468;SDS011;2247;42.666;23.292;2024-02-23T10:30:41;4.73;;;3.70;;
4468;SDS011;2247;42.666;23.292;2024-02-23T10:33:10;3.03;;;2.73;;
4468;SDS011;2247;42.666;23.292;2024-02-23T10:35:40;3.27;;;2.73;;
4468;SDS011;2247;42.666;23.292;2024-02-23T10:38:10;12.17;;;3.20;;
4468;SDS011;2247;42.666;23.292;2024-02-23T10:40:38;5.43;;;3.47;;
4468;SDS011;2247;42.666;23.292;2024-02-23T10:43:07;3.30;;;2.87;;
4468;SDS011;2247;42.666;23.292;2024-02-23T10:45:39;9.37;;;3.50;;
4468;SDS011;2247;42.666;23.292;2024-02-23T10:48:07;3.40;;;2.80;;
4468;SDS011;2247;42.666;23.292;2024-02-23T10:50:36;3.60;;;2.90;;
4468;SDS011;2247;42.666;23.292;2024-02-23T10:53:04;3.53;;;2.77;;
4468;SDS011;2247;42.666;23.292;2024-02-23T10:55:34;3.63;;;2.87;;
4468;SDS011;2247;42.666;23.292;2024-02-23T10:58:03;2.97;;;2.63;;
4468;SDS011;2247;42.666;23.292;2024-02-23T11:00:36;4.70;;;3.13;;
4468;SDS011;2247;42.666;23.292;2024-02-23T11:03:04;4.63;;;2.47;;
4468;SDS011;2247;42.666;23.292;2024-02-23T11:05:34;6.43;;;2.40;;
4468;SDS011;2247;42.666;23.292;2024-02-23T11:08:02;6.57;;;3.10;;
4468;SDS011;2247;42.666;23.292;2024-02-23T11:10:40;3.07;;;2.30;;
4468;SDS011;2247;42.666;23.292;2024-02-23T11:13:08;3.13;;;2.77;;
4468;SDS011;2247;42.666;23.292;2024-02-23T11:15:35;3.17;;;2.40;;
4468;SDS011;2247;42.666;23.292;2024-02-23T11:18:20;4.33;;;2.87;;
4468;SDS011;2247;42.666;23.292;2024-02-23T11:20:54;4.53;;;3.00;;
4468;SDS011;2247;42.666;23.292;2024-02-23T11:23:22;5.63;;;2.93;;
4468;SDS011;2247;42.666;23.292;2024-02-23T11:26:04;17.50;;;3.03;;
4468;SDS011;2247;42.666;23.292;2024-02-23T11:28:33;5.30;;;2.30;;
4468;SDS011;2247;42.666;23.292;2024-02-23T11:31:12;4.00;;;2.03;;
4468;SDS011;2247;42.666;23.292;2024-02-23T11:33:39;4.33;;;2.63;;
4468;SDS011;2247;42.666;23.292;2024-02-23T11:36:08;3.97;;;2.73;;
4468;SDS011;2247;42.666;23.292;2024-02-23T11:38:36;4.90;;;2.20;;
4468;SDS011;2247;42.666;23.292;2024-02-23T11:41:05;4.63;;;2.53;;
4468;SDS011;2247;42.666;23.292;2024-02-23T11:43:33;3.67;;;2.13;;
4468;SDS011;2247;42.666;23.292;2024-02-23T11:46:01;3.63;;;2.17;;
4468;SDS011;2247;42.666;23.292;2024-02-23T11:48:29;3.50;;;2.70;;
4468;SDS011;2247;42.666;23.292;2024-02-23T11:50:56;3.67;;;2.63;;
4468;SDS011;2247;42.666;23.292;2024-02-23T11:53:25;3.77;;;2.83;;
4468;SDS011;2247;42.666;23.292;2024-02-23T11:55:53;2.80;;;2.37;;
4468;SDS011;2247;42.666;23.292;2024-02-23T11:58:21;3.43;;;2.57;;
4468;SDS011;2247;42.666;23.292;2024-02-23T12:00:48;2.73;;;2.30;;
4468;SDS011;2247;42.666;23.292;2024-02-23T12:03:17;2.80;;;2.30;;
4468;SDS011;2247;42.666;23.292;2024-02-23T12:05:44;3.20;;;2.50;;
4468;SDS011;2247;42.666;23.292;2024-02-23T12:08:11;3.20;;;2.50;;
4468;SDS011;2247;42.666;23.292;2024-02-23T12:10:40;3.10;;;2.43;;
4468;SDS011;2247;42.666;23.292;2024-02-23T12:13:08;2.77;;;2.50;;
4468;SDS011;2247;42.666;23.292;2024-02-23T12:15:35;2.53;;;2.27;;
4468;SDS011;2247;42.666;23.292;2024-02-23T12:18:03;2.70;;;2.47;;
4468;SDS011;2247;42.666;23.292;2024-02-23T12:20:32;4.17;;;2.50;;
4468;SDS011;2247;42.666;23.292;2024-02-23T12:23:00;2.57;;;2.37;;
4468;SDS011;2247;42.666;23.292;2024-02-23T12:25:27;2.67;;;2.20;;
4468;SDS011;2247;42.666;23.292;2024-02-23T12:27:56;2.90;;;2.37;;
4468;SDS011;2247;42.666;23.292;2024-02-23T12:30:23;2.63;;;2.43;;
4468;SDS011;2247;42.666;23.292;2024-02-23T12:32:51;3.90;;;2.37;;
4468;SDS011;2247;42.666;23.292;2024-02-23T12:35:29;4.87;;;2.30;;
4468;SDS011;2247;42.666;23.292;2024-02-23T12:37:56;9.73;;;3.00;;
4468;SDS011;2247;42.666;23.292;2024-02-23T12:40:22;3.57;;;2.30;;
4468;SDS011;2247;42.666;23.292;2024-02-23T12:42:49;9.17;;;2.70;;
4468;SDS011;2247;42.666;23.292;2024-02-23T12:45:18;2.23;;;2.03;;
4468;SDS011;2247;42.666;23.292;2024-02-23T12:47:45;2.40;;;2.20;;
4468;SDS011;2247;42.666;23.292;2024-02-23T12:50:12;4.93;;;2.40;;
4468;SDS011;2247;42.666;23.292;2024-02-23T12:52:39;3.33;;;2.43;;
4468;SDS011;2247;42.666;23.292;2024-02-23T12:55:06;3.00;;;2.27;;
4468;SDS011;2247;42.666;23.292;2024-02-23T12:57:34;2.10;;;1.90;;
4468;SDS011;2247;42.666;23.292;2024-02-23T13:00:01;3.20;;;2.43;;
4468;SDS011;2247;42.666;23.292;2024-02-23T13:02:31;2.33;;;2.00;;
4468;SDS011;2247;42.666;23.292;2024-02-23T13:04:58;2.20;;;2.00;;
4468;SDS011;2247;42.666;23.292;2024-02-23T13:07:25;3.00;;;1.90;;
4468;SDS011;2247;42.666;23.292;2024-02-23T13:09:52;4.37;;;2.50;;
4468;SDS011;2247;42.666;23.292;2024-02-23T13:12:19;3.13;;;2.27;;
4468;SDS011;2247;42.666;23.292;2024-02-23T13:14:46;2.60;;;2.30;;
4468;SDS011;2247;42.666;23.292;2024-02-23T13:17:13;3.27;;;2.43;;
4468;SDS011;2247;42.666;23.292;2024-02-23T13:19:41;2.27;;;2.07;;
4468;SDS011;2247;42.666;23.292;2024-02-23T13:22:08;3.17;;;2.30;;
4468;SDS011;2247;42.666;23.292;2024-02-23T13:24:35;2.30;;;2.10;;
4468;SDS011;2247;42.666;23.292;2024-02-23T13:27:05;7.13;;;2.33;;
4468;SDS011;2247;42.666;23.292;2024-02-23T13:29:31;3.60;;;2.20;;
4468;SDS011;2247;42.666;23.292;2024-02-23T13:31:58;6.37;;;3.23;;
4468;SDS011;2247;42.666;23.292;2024-02-23T13:34:25;3.80;;;2.40;;
4468;SDS011;2247;42.666;23.292;2024-02-23T13:36:54;4.57;;;2.47;;
4468;SDS011;2247;42.666;23.292;2024-02-23T13:39:21;7.33;;;2.30;;
4468;SDS011;2247;42.666;23.292;2024-02-23T13:41:48;15.83;;;2.60;;
4468;SDS011;2247;42.666;23.292;2024-02-23T13:44:15;4.00;;;2.13;;
4468;SDS011;2247;42.666;23.292;2024-02-23T13:46:42;3.60;;;2.30;;
4468;SDS011;2247;42.666;23.292;2024-02-23T13:49:09;3.33;;;3.03;;
4468;SDS011;2247;42.666;23.292;2024-02-23T13:51:38;3.30;;;2.20;;
4468;SDS011;2247;42.666;23.292;2024-02-23T13:54:06;2.97;;;2.60;;
4468;SDS011;2247;42.666;23.292;2024-02-23T13:56:33;2.37;;;2.17;;
4468;SDS011;2247;42.666;23.292;2024-02-23T13:59:00;2.60;;;2.20;;
4468;SDS011;2247;42.666;23.292;2024-02-23T14:01:28;3.37;;;2.70;;
4468;SDS011;2247;42.666;23.292;2024-02-23T14:03:55;2.53;;;2.30;;
4468;SDS011;2247;42.666;23.292;2024-02-23T14:06:21;2.40;;;2.20;;
4468;SDS011;2247;42.666;23.292;2024-02-23T14:08:49;3.17;;;2.40;;
4468;SDS011;2247;42.666;23.292;2024-02-23T14:11:17;4.07;;;2.30;;
4468;SDS011;2247;42.666;23.292;2024-02-23T14:13:44;4.53;;;2.40;;
4468;SDS011;2247;42.666;23.292;2024-02-23T14:16:11;2.50;;;2.20;;
4468;SDS011;2247;42.666;23.292;2024-02-23T14:18:38;3.37;;;2.27;;
4468;SDS011;2247;42.666;23.292;2024-02-23T14:21:07;2.67;;;2.43;;
4468;SDS011;2247;42.666;23.292;2024-02-23T14:23:35;2.93;;;2.60;;
4468;SDS011;2247;42.666;23.292;2024-02-23T14:26:02;2.40;;;2.20;;
4468;SDS011;2247;42.666;23.292;2024-02-23T14:28:31;3.50;;;2.80;;
4468;SDS011;2247;42.666;23.292;2024-02-23T14:30:58;4.63;;;2.77;;
4468;SDS011;2247;42.666;23.292;2024-02-23T14:33:25;4.83;;;3.13;;
4468;SDS011;2247;42.666;23.292;2024-02-23T14:35:52;3.30;;;2.53;;
4468;SDS011;2247;42.666;23.292;2024-02-23T14:38:21;3.10;;;2.60;;
4468;SDS011;2247;42.666;23.292;2024-02-23T14:40:48;4.50;;;2.43;;
4468;SDS011;2247;42.666;23.292;2024-02-23T14:43:15;4.27;;;2.90;;
4468;SDS011;2247;42.666;23.292;2024-02-23T14:45:43;3.10;;;2.40;;
4468;SDS011;2247;42.666;23.292;2024-02-23T14:48:10;2.40;;;2.20;;
4468;SDS011;2247;42.666;23.292;2024-02-23T14:50:37;4.27;;;2.17;;
4468;SDS011;2247;42.666;23.292;2024-02-23T14:53:04;4.00;;;2.80;;
4468;SDS011;2247;42.666;23.292;2024-02-23T14:55:31;2.93;;;2.43;;
4468;SDS011;2247;42.666;23.292;2024-02-23T14:57:58;3.33;;;2.50;;
4468;SDS011;2247;42.666;23.292;2024-02-23T15:00:25;6.10;;;2.77;;
4468;SDS011;2247;42.666;23.292;2024-02-23T15:02:56;4.60;;;3.00;;
4468;SDS011;2247;42.666;23.292;2024-02-23T15:05:23;4.93;;;2.60;;
4468;SDS011;2247;42.666;23.292;2024-02-23T15:07:50;3.03;;;2.40;;
4468;SDS011;2247;42.666;23.292;2024-02-23T15:10:17;8.07;;;2.80;;
4468;SDS011;2247;42.666;23.292;2024-02-23T15:12:46;6.53;;;3.37;;
4468;SDS011;2247;42.666;23.292;2024-02-23T15:15:13;4.00;;;3.00;;
4468;SDS011;2247;42.666;23.292;2024-02-23T15:17:43;3.30;;;3.00;;
4468;SDS011;2247;42.666;23.292;2024-02-23T15:20:14;6.33;;;2.87;;
4468;SDS011;2247;42.666;23.292;2024-02-23T15:22:41;3.33;;;2.50;;
4468;SDS011;2247;42.666;23.292;2024-02-23T15:25:08;3.20;;;2.73;;
4468;SDS011;2247;42.666;23.292;2024-02-23T15:27:35;6.43;;;3.13;;
4468;SDS011;2247;42.666;23.292;2024-02-23T15:30:02;3.63;;;3.20;;
4468;SDS011;2247;42.666;23.292;2024-02-23T15:32:33;4.00;;;3.00;;
4468;SDS011;2247;42.666;23.292;2024-02-23T15:35:00;3.90;;;2.60;;
4468;SDS011;2247;42.666;23.292;2024-02-23T15:37:29;3.60;;;3.00;;
4468;SDS011;2247;42.666;23.292;2024-02-23T15:39:56;4.13;;;2.93;;
4468;SDS011;2247;42.666;23.292;2024-02-23T15:42:23;4.90;;;3.03;;
4468;SDS011;2247;42.666;23.292;2024-02-23T15:44:50;3.33;;;3.00;;
4468;SDS011;2247;42.666;23.292;2024-02-23T15:47:18;3.57;;;2.90;;
4468;SDS011;2247;42.666;23.292;2024-02-23T15:49:45;6.87;;;3.20;;
4468;SDS011;2247;42.666;23.292;2024-02-23T15:52:12;3.20;;;2.70;;
4468;SDS011;2247;42.666;23.292;2024-02-23T15:54:41;5.03;;;3.00;;
4468;SDS011;2247;42.666;23.292;2024-02-23T15:57:10;4.23;;;3.13;;
4468;SDS011;2247;42.666;23.292;2024-02-23T15:59:37;4.50;;;3.10;;
4468;SDS011;2247;42.666;23.292;2024-02-23T16:02:05;5.93;;;3.20;;
4468;SDS011;2247;42.666;23.292;2024-02-23T16:04:33;4.03;;;3.33;;
4468;SDS011;2247;42.666;23.292;2024-02-23T16:07:00;3.60;;;3.10;;
4468;SDS011;2247;42.666;23.292;2024-02-23T16:09:28;3.77;;;3.10;;